createdAt,value
2018-12-20T00:02:26.579Z,46.14
2018-12-20T00:04:55.424Z,46.28
2018-12-20T00:07:24.874Z,45.89
2018-12-20T00:09:53.932Z,46.06
2018-12-20T00:12:22.849Z,45.56
2018-12-20T00:14:51.812Z,45.39
2018-12-20T00:17:25.908Z,45.34
2018-12-20T00:19:54.947Z,44.79
2018-12-20T00:22:24.214Z,44.77
2018-12-20T00:24:53.049Z,44.86
2018-12-20T00:27:21.887Z,45.02
2018-12-20T00:29:50.725Z,44.83
2018-12-20T00:32:19.572Z,44.42
2018-12-20T00:34:48.528Z,44.75
2018-12-20T00:37:17.893Z,44.82
2018-12-20T00:39:46.867Z,45.08
2018-12-20T00:42:15.870Z,45.29
2018-12-20T00:44:44.811Z,45.25
2018-12-20T00:47:14.037Z,44.94
2018-12-20T00:49:43.547Z,44.86
2018-12-20T00:52:12.475Z,45.41
2018-12-20T00:54:41.407Z,44.65
2018-12-20T00:57:10.405Z,45.21
2018-12-20T00:59:39.344Z,45.00
2018-12-20T01:02:08.647Z,44.87
2018-12-20T01:04:38.004Z,45.27
2018-12-20T01:07:07.212Z,45.15
2018-12-20T01:09:36.152Z,45.71
2018-12-20T01:12:05.241Z,45.55
2018-12-20T01:14:34.139Z,45.85
2018-12-20T01:17:03.112Z,45.54
2018-12-20T01:19:32.635Z,45.48
2018-12-20T01:22:01.795Z,45.40
2018-12-20T01:24:30.993Z,45.63
2018-12-20T01:27:00.046Z,45.49
2018-12-20T01:29:29.045Z,45.54
2018-12-20T01:31:58.173Z,45.47
2018-12-20T01:34:27.484Z,45.60
2018-12-20T01:36:56.507Z,45.59
2018-12-20T01:39:25.698Z,45.83
2018-12-20T01:41:54.836Z,45.56
2018-12-20T01:44:23.887Z,45.43
2018-12-20T01:46:54.562Z,45.61
2018-12-20T01:49:24.595Z,45.67
2018-12-20T01:51:55.307Z,45.83
2018-12-20T01:54:24.364Z,45.78
2018-12-20T01:56:53.600Z,45.66
2018-12-20T01:59:22.673Z,46.39
2018-12-20T02:01:52.172Z,46.42
2018-12-20T02:04:21.045Z,45.95
2018-12-20T02:06:49.966Z,46.36
2018-12-20T02:09:18.976Z,46.14
2018-12-20T02:11:48.093Z,46.20
2018-12-20T02:14:17.156Z,46.06
2018-12-20T02:16:46.653Z,45.93
2018-12-20T02:19:16.026Z,45.95
2018-12-20T02:21:45.052Z,46.21
2018-12-20T02:24:14.728Z,46.32
2018-12-20T02:26:43.710Z,46.31
2018-12-20T02:29:13.034Z,45.97
2018-12-20T02:31:41.965Z,46.25
2018-12-20T02:34:10.919Z,45.65
2018-12-20T02:36:39.731Z,46.24
2018-12-20T02:39:09.335Z,46.43
2018-12-20T02:41:38.264Z,46.15
2018-12-20T02:44:07.640Z,46.22
2018-12-20T02:46:36.529Z,46.03
2018-12-20T02:49:05.678Z,46.59
2018-12-20T02:51:34.734Z,46.50
2018-12-20T02:54:03.988Z,46.63
2018-12-20T02:56:33.149Z,46.58
2018-12-20T02:59:02.661Z,46.25
2018-12-20T03:01:31.866Z,46.40
2018-12-20T03:04:00.947Z,46.85
2018-12-20T03:06:29.832Z,46.44
2018-12-20T03:08:58.987Z,46.14
2018-12-20T03:11:28.122Z,46.29
2018-12-20T03:13:57.483Z,46.40
2018-12-20T03:16:26.422Z,46.40
2018-12-20T03:18:55.623Z,46.50
2018-12-20T03:21:24.660Z,46.23
2018-12-20T03:23:54.007Z,46.28
2018-12-20T03:26:23.985Z,46.29
2018-12-20T03:28:53.143Z,46.30
2018-12-20T03:31:22.201Z,46.19
2018-12-20T03:33:51.304Z,46.36
2018-12-20T03:36:20.333Z,46.65
2018-12-20T03:38:49.863Z,46.74
2018-12-20T03:41:18.886Z,46.41
2018-12-20T03:43:47.916Z,46.65
2018-12-20T03:46:16.771Z,46.44
2018-12-20T03:48:45.667Z,46.71
2018-12-20T03:51:14.922Z,46.96
2018-12-20T03:53:43.904Z,46.80
2018-12-20T03:56:13.068Z,46.70
2018-12-20T03:58:42.533Z,46.56
2018-12-20T04:01:11.437Z,46.80
2018-12-20T04:03:40.295Z,46.88
2018-12-20T04:06:09.694Z,46.56
2018-12-20T04:08:38.583Z,46.78
2018-12-20T04:11:07.474Z,46.60
2018-12-20T04:13:36.917Z,46.48
2018-12-20T04:16:06.065Z,46.98
2018-12-20T04:18:35.126Z,46.55
2018-12-20T04:21:04.238Z,46.75
2018-12-20T04:23:33.072Z,46.65
2018-12-20T04:26:01.900Z,46.82
2018-12-20T04:28:30.951Z,46.98
2018-12-20T04:31:00.068Z,46.32
2018-12-20T04:33:29.006Z,46.93
2018-12-20T04:36:00.061Z,46.63
2018-12-20T04:38:28.943Z,47.06
2018-12-20T04:40:58.218Z,47.17
2018-12-20T04:43:27.124Z,47.23
2018-12-20T04:45:56.759Z,46.92
2018-12-20T04:48:26.200Z,47.04
2018-12-20T04:50:55.434Z,47.16
2018-12-20T04:53:24.398Z,47.05
2018-12-20T04:55:53.457Z,47.21
2018-12-20T04:58:22.759Z,47.07
2018-12-20T05:00:51.910Z,47.03
2018-12-20T05:03:21.465Z,46.86
2018-12-20T05:05:50.382Z,46.65
2018-12-20T05:08:19.306Z,47.03
2018-12-20T05:10:48.331Z,46.93
2018-12-20T05:13:17.832Z,46.85
2018-12-20T05:15:55.727Z,46.99
2018-12-20T05:18:17.544Z,47.01
2018-12-20T05:20:46.706Z,47.28
2018-12-20T05:23:15.695Z,47.56
2018-12-20T05:25:44.567Z,47.22
2018-12-20T05:28:13.537Z,47.13
2018-12-20T05:30:42.564Z,47.20
2018-12-20T05:33:12.169Z,47.34
2018-12-20T05:35:41.160Z,47.59
2018-12-20T05:38:10.064Z,47.92
2018-12-20T05:40:38.968Z,48.26
2018-12-20T05:43:07.876Z,47.80
2018-12-20T05:45:36.896Z,47.80
2018-12-20T05:48:06.154Z,47.67
2018-12-20T05:50:35.109Z,47.99
2018-12-20T05:53:04.050Z,47.57
2018-12-20T05:55:32.923Z,47.41
2018-12-20T05:58:01.760Z,47.59
2018-12-20T06:00:30.597Z,47.50
2018-12-20T06:02:59.925Z,47.51
2018-12-20T06:05:28.861Z,47.07
2018-12-20T06:07:57.770Z,47.54
2018-12-20T06:10:26.765Z,47.01
2018-12-20T06:12:55.848Z,47.31
2018-12-20T06:15:24.815Z,46.81
2018-12-20T06:17:54.132Z,47.24
2018-12-20T06:20:23.310Z,46.66
2018-12-20T06:22:52.406Z,47.04
2018-12-20T06:25:21.558Z,47.08
2018-12-20T06:27:50.775Z,47.02
2018-12-20T06:30:19.682Z,46.65
2018-12-20T06:32:49.316Z,46.57
2018-12-20T06:35:18.262Z,46.60
2018-12-20T06:37:47.302Z,46.58
2018-12-20T06:40:16.548Z,46.78
2018-12-20T06:42:45.413Z,46.70
2018-12-20T06:45:14.542Z,46.44
2018-12-20T06:47:43.799Z,46.53
2018-12-20T06:50:13.804Z,46.10
2018-12-20T06:52:43.258Z,46.25
2018-12-20T06:55:12.506Z,46.21
2018-12-20T06:57:41.458Z,46.57
2018-12-20T07:00:10.574Z,46.55
2018-12-20T07:02:39.983Z,46.60
2018-12-20T07:05:08.825Z,46.21
2018-12-20T07:07:37.679Z,45.91
2018-12-20T07:10:07.892Z,45.93
2018-12-20T07:12:36.749Z,46.14
2018-12-20T07:15:05.923Z,45.96
2018-12-20T07:17:34.727Z,45.40
2018-12-20T07:20:04.254Z,45.74
2018-12-20T07:22:33.198Z,45.30
2018-12-20T07:25:02.607Z,45.65
2018-12-20T07:27:31.474Z,45.63
2018-12-20T07:30:01.187Z,45.68
2018-12-20T07:32:30.387Z,45.05
2018-12-20T07:34:59.529Z,45.26
2018-12-20T07:37:28.607Z,45.10
2018-12-20T07:39:58.274Z,44.87
2018-12-20T07:42:27.361Z,45.17
2018-12-20T07:44:56.150Z,45.40
2018-12-20T07:47:26.501Z,45.02
2018-12-20T07:49:55.325Z,45.17
2018-12-20T07:52:24.106Z,44.77
2018-12-20T07:54:53.765Z,44.79
2018-12-20T07:57:24.825Z,44.61
2018-12-20T07:59:54.378Z,44.44
2018-12-20T08:02:23.503Z,44.52
2018-12-20T08:04:52.575Z,44.60
2018-12-20T08:07:22.193Z,44.64
2018-12-20T08:09:51.344Z,44.61
2018-12-20T08:12:21.522Z,44.80
2018-12-20T08:14:50.620Z,44.41
2018-12-20T08:17:19.626Z,44.42
2018-12-20T08:19:48.595Z,44.49
2018-12-20T08:22:19.022Z,44.52
2018-12-20T08:24:47.929Z,44.24
2018-12-20T08:27:17.381Z,44.96
2018-12-20T08:29:47.254Z,45.10
2018-12-20T08:32:16.274Z,45.03
2018-12-20T08:34:45.215Z,44.84
2018-12-20T08:37:14.825Z,44.90
2018-12-20T08:39:44.075Z,44.69
2018-12-20T08:42:13.063Z,44.91
2018-12-20T08:44:42.021Z,44.96
2018-12-20T08:47:11.083Z,44.94
2018-12-20T08:49:40.549Z,45.08
2018-12-20T08:52:10.490Z,45.36
2018-12-20T08:54:39.432Z,45.35
2018-12-20T08:57:09.712Z,45.19
2018-12-20T08:59:38.727Z,45.41
2018-12-20T09:02:07.502Z,45.82
2018-12-20T09:04:37.469Z,45.63
2018-12-20T09:07:06.728Z,45.88
2018-12-20T09:09:35.654Z,48.04
2018-12-20T09:12:04.718Z,47.00
2018-12-20T09:14:34.004Z,47.10
2018-12-20T09:17:04.411Z,47.11
2018-12-20T09:19:40.949Z,47.17
2018-12-20T09:22:13.166Z,47.18
2018-12-20T09:24:45.210Z,47.04
2018-12-20T09:27:22.405Z,46.72
2018-12-20T09:29:51.506Z,44.88
2018-12-20T09:32:20.329Z,46.62
2018-12-20T09:34:49.307Z,46.60
2018-12-20T09:37:18.378Z,46.47
2018-12-20T09:39:48.917Z,46.61
2018-12-20T09:42:18.414Z,46.77
2018-12-20T09:44:47.711Z,45.86
2018-12-20T09:47:21.576Z,45.44
2018-12-20T09:49:50.569Z,45.39
2018-12-20T09:52:19.733Z,45.78
2018-12-20T09:54:48.879Z,45.27
2018-12-20T09:57:17.887Z,46.33
2018-12-20T09:59:53.433Z,45.47
2018-12-20T10:02:22.621Z,45.79
2018-12-20T10:04:52.963Z,45.96
2018-12-20T10:07:22.074Z,46.27
2018-12-20T10:09:51.142Z,45.93
2018-12-20T10:12:20.132Z,46.47
2018-12-20T10:14:49.350Z,46.63
2018-12-20T10:17:19.948Z,45.95
2018-12-20T10:19:50.482Z,45.76
2018-12-20T10:22:20.114Z,45.69
2018-12-20T10:24:49.141Z,46.11
2018-12-20T10:27:18.324Z,46.70
2018-12-20T10:29:47.354Z,46.22
2018-12-20T10:32:16.154Z,46.20
2018-12-20T10:34:46.561Z,45.82
2018-12-20T10:37:18.951Z,46.25
2018-12-20T10:39:56.460Z,46.23
2018-12-20T10:42:25.559Z,46.17
2018-12-20T10:44:54.336Z,46.27
2018-12-20T10:47:29.273Z,45.24
2018-12-20T10:49:58.002Z,45.94
2018-12-20T10:52:27.449Z,46.62
2018-12-20T10:54:56.334Z,46.40
2018-12-20T10:57:25.229Z,46.31
2018-12-20T10:59:54.842Z,46.58
2018-12-20T11:02:29.053Z,47.03
2018-12-20T11:05:02.450Z,45.92
2018-12-20T11:07:36.874Z,45.92
2018-12-20T11:10:12.650Z,46.05
2018-12-20T11:12:47.314Z,45.91
2018-12-20T11:15:17.833Z,46.66
2018-12-20T11:17:47.251Z,46.53
2018-12-20T11:20:19.589Z,46.53
2018-12-20T11:22:50.579Z,47.19
2018-12-20T11:25:20.185Z,46.67
2018-12-20T11:27:49.046Z,46.32
2018-12-20T11:30:18.085Z,46.39
2018-12-20T11:32:46.917Z,46.15
2018-12-20T11:35:17.286Z,46.65
2018-12-20T11:37:46.382Z,46.59
2018-12-20T11:40:16.650Z,46.66
2018-12-20T11:42:45.973Z,46.54
2018-12-20T11:45:16.680Z,46.29
2018-12-20T11:47:46.067Z,46.56
2018-12-20T11:50:15.928Z,45.90
2018-12-20T11:52:45.419Z,45.64
2018-12-20T11:55:14.412Z,45.93
2018-12-20T11:57:43.254Z,45.51
2018-12-20T12:00:12.493Z,46.10
2018-12-20T12:02:41.775Z,46.15
2018-12-20T12:05:10.978Z,46.03
2018-12-20T12:07:40.436Z,46.06
2018-12-20T12:10:09.291Z,45.97
2018-12-20T12:12:38.117Z,46.03
2018-12-20T12:15:08.116Z,45.34
2018-12-20T12:17:37.571Z,45.33
2018-12-20T12:20:07.860Z,45.47
2018-12-20T12:22:36.654Z,46.05
2018-12-20T12:25:06.389Z,46.12
2018-12-20T12:27:35.809Z,46.17
2018-12-20T12:30:05.299Z,46.39
2018-12-20T12:32:34.749Z,46.28
2018-12-20T12:35:03.666Z,45.73
2018-12-20T12:37:32.833Z,45.56
2018-12-20T12:40:01.631Z,45.83
2018-12-20T12:42:30.506Z,45.82
2018-12-20T12:44:59.357Z,46.11
2018-12-20T12:47:33.810Z,46.14
2018-12-20T12:50:02.710Z,46.65
2018-12-20T12:52:31.498Z,47.28
2018-12-20T12:55:00.587Z,46.30
2018-12-20T12:57:29.366Z,46.69
2018-12-20T12:59:58.154Z,47.42
2018-12-20T13:02:27.638Z,46.86
2018-12-20T13:04:56.554Z,46.88
2018-12-20T13:07:25.682Z,46.85
2018-12-20T13:09:54.850Z,48.00
2018-12-20T13:12:23.702Z,48.42
2018-12-20T13:14:52.818Z,47.97
2018-12-20T13:17:22.254Z,47.32
2018-12-20T13:19:51.224Z,47.07
2018-12-20T13:22:21.658Z,47.87
2018-12-20T13:24:50.676Z,47.64
2018-12-20T13:27:19.849Z,47.56
2018-12-20T13:29:48.674Z,47.30
2018-12-20T13:32:18.850Z,47.19
2018-12-20T13:34:47.863Z,47.41
2018-12-20T13:37:17.090Z,48.55
2018-12-20T13:39:46.289Z,47.54
2018-12-20T13:42:15.951Z,47.76
2018-12-20T13:44:45.690Z,47.43
2018-12-20T13:47:14.717Z,47.52
2018-12-20T13:49:43.598Z,47.23
2018-12-20T13:52:13.402Z,48.48
2018-12-20T13:54:42.220Z,47.30
2018-12-20T13:57:11.691Z,47.98
2018-12-20T13:59:41.058Z,47.87
2018-12-20T14:02:10.317Z,49.17
2018-12-20T14:04:39.694Z,48.04
2018-12-20T14:07:08.650Z,47.47
2018-12-20T14:10:12.387Z,47.52
2018-12-20T14:12:42.406Z,47.47
2018-12-20T14:15:18.248Z,47.72
2018-12-20T14:17:57.723Z,47.93
2018-12-20T14:20:43.517Z,48.03
2018-12-20T14:23:17.908Z,48.15
2018-12-20T14:25:47.809Z,48.19
2018-12-20T14:28:16.909Z,48.19
2018-12-20T14:30:45.722Z,47.78
2018-12-20T14:33:14.734Z,47.71
2018-12-20T14:35:44.032Z,47.41
2018-12-20T14:38:13.041Z,48.16
2018-12-20T14:40:42.161Z,47.99
2018-12-20T14:43:11.117Z,47.51
2018-12-20T14:45:40.202Z,47.62
2018-12-20T14:48:11.044Z,47.29
2018-12-20T14:50:40.280Z,47.49
2018-12-20T14:53:09.107Z,47.07
2018-12-20T14:55:37.917Z,47.33
2018-12-20T14:58:06.783Z,47.36
2018-12-20T15:00:35.619Z,47.40
2018-12-20T15:03:04.458Z,47.73
2018-12-20T15:05:33.780Z,47.89
2018-12-20T15:08:02.595Z,48.19
2018-12-20T15:10:31.622Z,47.97
2018-12-20T15:13:00.932Z,48.46
2018-12-20T15:15:29.778Z,48.30
2018-12-20T15:17:58.602Z,48.33
2018-12-20T15:20:27.753Z,48.59
2018-12-20T15:22:56.951Z,49.50
2018-12-20T15:25:26.257Z,49.44
2018-12-20T15:27:55.386Z,48.85
2018-12-20T15:30:24.282Z,48.90
2018-12-20T15:32:53.241Z,49.01
2018-12-20T15:35:22.073Z,48.82
2018-12-20T15:37:51.363Z,48.96
2018-12-20T15:40:20.250Z,48.93
2018-12-20T15:42:49.143Z,49.17
2018-12-20T15:45:18.625Z,48.81
2018-12-20T15:47:47.461Z,48.85
2018-12-20T15:50:17.470Z,49.20
2018-12-20T15:52:46.477Z,49.07
2018-12-20T15:55:15.650Z,49.25
2018-12-20T15:57:45.662Z,48.62
2018-12-20T16:00:16.014Z,49.27
2018-12-20T16:02:44.855Z,48.72
2018-12-20T16:05:13.718Z,48.85
2018-12-20T16:07:42.824Z,48.72
2018-12-20T16:10:11.762Z,49.11
2018-12-20T16:12:41.079Z,49.14
2018-12-20T16:15:09.918Z,49.27
2018-12-20T16:17:38.744Z,48.90
2018-12-20T16:20:08.869Z,49.15
2018-12-20T16:22:37.690Z,48.75
2018-12-20T16:25:07.724Z,48.92
2018-12-20T16:27:37.534Z,48.85
2018-12-20T16:30:08.262Z,49.00
2018-12-20T16:32:37.143Z,49.27
2018-12-20T16:35:06.770Z,49.06
2018-12-20T16:37:35.944Z,48.65
2018-12-20T16:40:05.707Z,48.57
2018-12-20T16:42:35.494Z,49.02
2018-12-20T16:45:05.549Z,48.66
2018-12-20T16:47:34.374Z,48.27
2018-12-20T16:50:03.224Z,47.98
2018-12-20T16:52:33.710Z,48.26
2018-12-20T16:55:04.575Z,48.46
2018-12-20T16:57:35.069Z,48.10
2018-12-20T17:00:05.604Z,48.37
2018-12-20T17:02:34.938Z,48.41
2018-12-20T17:05:03.914Z,48.42
2018-12-20T17:07:32.890Z,48.45
2018-12-20T17:10:02.268Z,48.10
2018-12-20T17:12:31.567Z,48.37
2018-12-20T17:15:00.446Z,48.37
2018-12-20T17:17:29.946Z,48.54
2018-12-20T17:19:58.973Z,48.37
2018-12-20T17:22:28.909Z,48.11
2018-12-20T17:25:01.451Z,48.34
2018-12-20T17:27:30.290Z,48.13
2018-12-20T17:29:59.185Z,47.77
2018-12-20T17:32:27.993Z,47.87
2018-12-20T17:34:59.714Z,48.15
2018-12-20T17:37:30.803Z,47.83
2018-12-20T17:39:59.634Z,47.29
2018-12-20T17:42:28.610Z,47.88
2018-12-20T17:44:57.464Z,48.24
2018-12-20T17:47:26.517Z,48.14
2018-12-20T17:49:55.343Z,47.83
2018-12-20T17:52:24.714Z,47.53
2018-12-20T17:54:53.662Z,47.83
2018-12-20T17:57:22.598Z,47.69
2018-12-20T17:59:51.418Z,47.58
2018-12-20T18:02:20.234Z,47.94
2018-12-20T18:04:49.197Z,47.94
2018-12-20T18:07:18.806Z,47.71
2018-12-20T18:09:50.527Z,47.85
2018-12-20T18:12:19.638Z,47.34
2018-12-20T18:14:48.563Z,47.66
2018-12-20T18:17:17.566Z,47.48
2018-12-20T18:19:46.736Z,47.58
2018-12-20T18:22:16.002Z,47.06
2018-12-20T18:24:45.173Z,47.30
2018-12-20T18:27:14.041Z,47.26
2018-12-20T18:29:42.925Z,47.16
2018-12-20T18:32:12.090Z,46.98
2018-12-20T18:34:41.366Z,47.31
2018-12-20T18:37:10.213Z,47.04
2018-12-20T18:39:39.149Z,46.94
2018-12-20T18:42:08.178Z,47.35
2018-12-20T18:44:37.186Z,47.23
2018-12-20T18:47:06.067Z,47.15
2018-12-20T18:49:35.276Z,46.75
2018-12-20T18:52:04.191Z,46.87
2018-12-20T18:54:33.906Z,46.88
2018-12-20T18:57:02.731Z,46.61
2018-12-20T18:59:31.720Z,46.08
2018-12-20T19:02:00.550Z,45.54
2018-12-20T19:04:29.872Z,45.61
2018-12-20T19:06:58.693Z,45.40
2018-12-20T19:09:27.498Z,45.41
2018-12-20T19:11:56.333Z,44.64
2018-12-20T19:14:25.160Z,44.69
2018-12-20T19:16:53.988Z,44.38
2018-12-20T19:19:23.148Z,44.33
2018-12-20T19:21:51.970Z,44.13
2018-12-20T19:24:20.926Z,44.69
2018-12-20T19:26:50.985Z,44.43
2018-12-20T19:29:20.211Z,44.66
2018-12-20T19:31:49.039Z,44.09
2018-12-20T19:34:18.366Z,43.89
2018-12-20T19:36:47.218Z,43.90
2018-12-20T19:39:17.628Z,44.21
2018-12-20T19:41:47.153Z,43.74
2018-12-20T19:44:17.270Z,43.97
2018-12-20T19:46:46.194Z,44.04
2018-12-20T19:49:14.999Z,43.73
2018-12-20T19:51:44.082Z,43.55
2018-12-20T19:54:12.910Z,43.98
2018-12-20T19:56:41.739Z,43.99
2018-12-20T19:59:10.548Z,44.22
2018-12-20T20:01:39.719Z,43.78
2018-12-20T20:04:08.529Z,43.72
2018-12-20T20:06:37.407Z,43.94
2018-12-20T20:09:07.813Z,43.93
2018-12-20T20:11:36.632Z,43.50
2018-12-20T20:14:05.782Z,43.40
2018-12-20T20:16:35.131Z,43.30
2018-12-20T20:19:04.094Z,43.29
2018-12-20T20:21:33.290Z,43.53
2018-12-20T20:24:02.308Z,43.70
2018-12-20T20:26:31.214Z,44.13
2018-12-20T20:29:00.466Z,44.40
2018-12-20T20:31:29.479Z,44.02
2018-12-20T20:33:58.389Z,43.96
2018-12-20T20:36:27.317Z,43.69
2018-12-20T20:42:21.436Z,43.19
2018-12-20T20:44:50.970Z,43.76
2018-12-20T20:47:20.278Z,43.73
2018-12-20T20:49:49.089Z,44.25
2018-12-20T20:52:18.175Z,43.83
2018-12-20T20:54:48.505Z,43.87
2018-12-20T20:57:18.426Z,43.72
2018-12-20T20:59:51.059Z,44.43
2018-12-20T21:02:19.431Z,44.14
2018-12-20T21:04:49.057Z,44.21
2018-12-20T21:07:17.823Z,44.44
2018-12-20T21:09:47.430Z,44.58
2018-12-20T21:12:22.863Z,44.68
2018-12-20T21:14:52.300Z,44.34
2018-12-20T21:17:18.942Z,44.31
2018-12-20T21:19:50.223Z,44.55
2018-12-20T21:22:19.228Z,44.34
2018-12-20T21:24:48.195Z,44.57
2018-12-20T21:27:17.038Z,43.66
2018-12-20T21:29:46.261Z,43.90
2018-12-20T21:32:15.818Z,44.34
2018-12-20T21:34:45.041Z,44.04
2018-12-20T21:37:14.043Z,44.44
2018-12-20T21:39:43.221Z,44.25
2018-12-20T21:42:12.129Z,43.49
2018-12-20T21:44:41.338Z,44.35
2018-12-20T21:47:10.358Z,44.39
2018-12-20T21:49:40.409Z,44.43
2018-12-20T21:52:11.393Z,44.50
2018-12-20T21:54:40.942Z,44.18
2018-12-20T21:57:10.465Z,44.40
2018-12-20T21:59:40.545Z,43.70
2018-12-20T22:02:09.808Z,44.81
2018-12-20T22:04:38.907Z,44.43
2018-12-20T22:07:08.300Z,44.64
2018-12-20T22:09:37.235Z,44.99
2018-12-20T22:12:06.280Z,45.29
2018-12-20T22:14:35.407Z,45.26
2018-12-20T22:17:04.164Z,45.60
2018-12-20T22:19:32.909Z,45.26
2018-12-20T22:22:01.840Z,44.77
2018-12-20T22:24:30.841Z,45.67
2018-12-20T22:26:59.600Z,44.78
2018-12-20T22:29:28.694Z,45.48
2018-12-20T22:31:57.509Z,44.86
2018-12-20T22:34:26.753Z,45.31
2018-12-20T22:36:56.150Z,44.80
2018-12-20T22:39:25.257Z,45.42
2018-12-20T22:41:54.751Z,45.36
2018-12-20T22:44:24.450Z,45.67
2018-12-20T22:46:53.226Z,45.53
2018-12-20T22:49:21.981Z,45.76
2018-12-20T22:51:51.168Z,45.98
2018-12-20T22:54:20.644Z,46.16
2018-12-20T22:56:49.685Z,46.29
2018-12-20T22:59:20.911Z,46.31
2018-12-20T23:01:49.853Z,45.51
2018-12-20T23:04:19.004Z,46.17
2018-12-20T23:06:49.162Z,46.32
2018-12-20T23:09:18.743Z,46.18
2018-12-20T23:11:48.405Z,46.31
2018-12-20T23:14:17.278Z,46.11
2018-12-20T23:16:53.462Z,46.10
2018-12-20T23:19:17.054Z,45.70
2018-12-20T23:21:45.805Z,46.37
2018-12-20T23:24:15.179Z,45.65
2018-12-20T23:26:43.938Z,46.27
2018-12-20T23:29:12.970Z,45.84
2018-12-20T23:31:42.370Z,45.94
2018-12-20T23:34:11.102Z,46.07
2018-12-20T23:36:39.788Z,46.00
2018-12-20T23:39:08.528Z,45.96
2018-12-20T23:41:38.065Z,45.93
2018-12-20T23:44:06.797Z,46.37
2018-12-20T23:46:35.828Z,46.30
2018-12-20T23:49:04.617Z,46.08
2018-12-20T23:51:33.335Z,46.27
2018-12-20T23:54:02.213Z,46.23
2018-12-20T23:56:30.946Z,46.43
2018-12-20T23:58:59.677Z,46.16
